createdAt,value
2023-11-24T00:00:39.313Z,100111.06
2023-11-24T00:03:42.560Z,100102.63
2023-11-24T00:06:44.391Z,100089.69
2023-11-24T00:09:46.124Z,100080.34
2023-11-24T00:12:47.888Z,100082.97
2023-11-24T00:15:49.917Z,100071.84
2023-11-24T00:18:53.148Z,100071.09
2023-11-24T00:21:54.857Z,100065.13
2023-11-24T00:24:58.772Z,100064.22
2023-11-24T00:28:00.739Z,100060.50
2023-11-24T00:31:06.635Z,100060.66
2023-11-24T00:34:09.915Z,100067.56
2023-11-24T00:37:12.030Z,100064.22
2023-11-24T00:40:15.468Z,100066.97
2023-11-24T00:43:17.368Z,100073.88
2023-11-24T00:46:19.799Z,100054.97
2023-11-24T00:49:22.826Z,100044.66
2023-11-24T00:52:27.165Z,100049.72
2023-11-24T00:55:31.131Z,100037.75
2023-11-24T00:58:32.747Z,100030.69
2023-11-24T01:01:34.874Z,100036.69
2023-11-24T01:04:38.023Z,100032.06
2023-11-24T01:07:41.196Z,100041.75
2023-11-24T01:10:42.923Z,100047.94
2023-11-24T01:13:44.708Z,100054.38
2023-11-24T01:16:46.483Z,100048.81
2023-11-24T01:19:49.588Z,100037.41
2023-11-24T01:22:51.735Z,100027.53
2023-11-24T01:25:54.604Z,100002.91
2023-11-24T01:28:56.265Z,100014.75
2023-11-24T01:31:57.937Z,100008.13
2023-11-24T01:35:00.933Z,100016.78
2023-11-24T01:38:02.572Z,100017.06
2023-11-24T01:41:04.673Z,99980.00
2023-11-24T01:44:06.619Z,99954.31
2023-11-24T01:47:08.240Z,99965.06
2023-11-24T01:50:11.953Z,99967.69
2023-11-24T01:53:15.145Z,99955.16
2023-11-24T01:56:16.890Z,99959.19
2023-11-24T01:59:18.683Z,99954.72
2023-11-24T02:02:23.709Z,99956.09
2023-11-24T02:05:26.799Z,99958.84
2023-11-24T02:08:29.254Z,99959.94
2023-11-24T02:11:30.991Z,99954.09
2023-11-24T02:14:33.106Z,99939.66
2023-11-24T02:17:34.809Z,99934.59
2023-11-24T02:20:38.776Z,99933.66
2023-11-24T02:23:43.513Z,99930.75
2023-11-24T02:26:45.655Z,99926.16
2023-11-24T02:29:48.654Z,99910.31
2023-11-24T02:32:50.454Z,99910.91
2023-11-24T02:35:52.285Z,99911.88
2023-11-24T02:38:55.399Z,99896.94
2023-11-24T02:41:57.202Z,99906.47
2023-11-24T02:44:58.853Z,99917.09
2023-11-24T02:48:00.730Z,99915.53
2023-11-24T02:51:05.253Z,100016.84
2023-11-24T02:54:08.830Z,100009.16
2023-11-24T02:57:10.725Z,100001.59
2023-11-24T03:00:14.170Z,100002.78
2023-11-24T03:03:15.969Z,100002.31
2023-11-24T03:06:19.224Z,99998.91
2023-11-24T03:09:24.224Z,99992.94
2023-11-24T03:12:25.831Z,99986.66
2023-11-24T03:15:27.613Z,99973.75
2023-11-24T03:18:29.326Z,99972.34
2023-11-24T03:21:32.464Z,99967.41
2023-11-24T03:24:36.388Z,99963.69
2023-11-24T03:27:38.096Z,99962.59
2023-11-24T03:30:39.858Z,99952.78
2023-11-24T03:33:41.573Z,99962.13
2023-11-24T03:36:43.412Z,99974.13
2023-11-24T03:39:46.441Z,99971.03
2023-11-24T03:42:48.183Z,99966.09
2023-11-24T03:45:50.245Z,99967.59
2023-11-24T03:48:51.993Z,99963.63
2023-11-24T03:51:54.697Z,99967.28
2023-11-24T03:54:58.518Z,99964.81
2023-11-24T03:58:00.404Z,99966.22
2023-11-24T04:01:02.602Z,99956.22
2023-11-24T04:04:04.822Z,99939.97
2023-11-24T04:07:06.632Z,99941.94
2023-11-24T04:10:10.396Z,99934.84
2023-11-24T04:13:12.141Z,99935.63
2023-11-24T04:16:15.677Z,99936.41
2023-11-24T04:19:17.431Z,99936.84
2023-11-24T04:22:19.110Z,99930.53
2023-11-24T04:25:22.263Z,99932.06
2023-11-24T04:28:24.049Z,99914.41
2023-11-24T04:31:25.815Z,99912.84
2023-11-24T04:34:27.906Z,99909.59
2023-11-24T04:37:29.819Z,99902.50
2023-11-24T04:40:32.947Z,99907.41
2023-11-24T04:43:34.591Z,99901.06
2023-11-24T04:46:36.526Z,99908.56
2023-11-24T04:49:38.190Z,99910.78
2023-11-24T04:52:39.903Z,99891.91
2023-11-24T04:55:43.081Z,99894.78
2023-11-24T04:58:44.755Z,99886.31
2023-11-24T05:01:47.323Z,99883.22
2023-11-24T05:04:49.144Z,99874.00
2023-11-24T05:07:50.843Z,99865.22
2023-11-24T05:10:54.469Z,99863.84
2023-11-24T05:13:56.959Z,99866.38
2023-11-24T05:16:58.828Z,99865.78
2023-11-24T05:20:00.619Z,99857.50
2023-11-24T05:23:02.561Z,99869.63
2023-11-24T05:26:05.943Z,99872.16
2023-11-24T05:29:07.622Z,99887.19
2023-11-24T05:32:09.246Z,99882.09
2023-11-24T05:35:11.275Z,99890.59
2023-11-24T05:38:12.926Z,99882.00
2023-11-24T05:41:16.150Z,99879.75
2023-11-24T05:44:19.435Z,99879.56
2023-11-24T05:47:21.424Z,99885.28
2023-11-24T05:50:23.868Z,99890.13
2023-11-24T05:53:26.537Z,99880.53
2023-11-24T05:56:30.030Z,99881.22
2023-11-24T05:59:31.926Z,99885.88
2023-11-24T06:02:34.836Z,99881.22
2023-11-24T06:05:36.561Z,99890.75
2023-11-24T06:08:38.285Z,99885.91
2023-11-24T06:11:41.410Z,99892.50
2023-11-24T06:14:43.366Z,99881.28
2023-11-24T06:17:45.179Z,99891.25
2023-11-24T06:20:46.834Z,99882.50
2023-11-24T06:23:52.048Z,99871.53
2023-11-24T06:26:55.036Z,99870.34
2023-11-24T06:29:56.723Z,99859.78
2023-11-24T06:32:58.403Z,99865.41
2023-11-24T06:36:01.578Z,99857.09
2023-11-24T06:39:03.974Z,99858.78
2023-11-24T06:42:07.314Z,99865.59
2023-11-24T06:45:10.620Z,99857.94
2023-11-24T06:48:12.564Z,99866.47
2023-11-24T06:51:14.299Z,99860.56
2023-11-24T06:54:16.625Z,99857.56
2023-11-24T06:57:19.776Z,99859.03
2023-11-24T07:00:22.113Z,99853.84
2023-11-24T07:03:23.882Z,99864.78
2023-11-24T07:06:26.096Z,99881.25
2023-11-24T07:09:27.823Z,99872.06
2023-11-24T07:12:30.886Z,99880.66
2023-11-24T07:15:32.596Z,99873.44
2023-11-24T07:18:34.435Z,99864.19
2023-11-24T07:21:36.404Z,99866.31
2023-11-24T07:24:39.582Z,99864.16
2023-11-24T07:27:43.517Z,99871.00
2023-11-24T07:30:47.003Z,99880.66
2023-11-24T07:33:50.337Z,99868.25
2023-11-24T07:36:54.572Z,99873.41
2023-11-24T07:39:56.581Z,99866.03
2023-11-24T07:42:59.695Z,99856.88
2023-11-24T07:46:01.628Z,99836.81
2023-11-24T07:49:04.603Z,99856.38
2023-11-24T07:52:06.574Z,99848.94
2023-11-24T07:55:08.775Z,99853.94
2023-11-24T07:58:12.291Z,99859.03
2023-11-24T08:01:14.886Z,99849.91
2023-11-24T08:04:16.945Z,99848.22
2023-11-24T08:07:19.697Z,99840.03
2023-11-24T08:10:22.239Z,99839.91
2023-11-24T08:13:25.376Z,99831.84
2023-11-24T08:16:27.586Z,99838.38
2023-11-24T08:19:29.543Z,99829.53
2023-11-24T08:22:32.135Z,99827.53
2023-11-24T08:25:36.074Z,99829.63
2023-11-24T08:28:39.043Z,99821.19
2023-11-24T08:31:41.701Z,99821.03
2023-11-24T08:34:43.867Z,99812.31
2023-11-24T08:37:45.710Z,99806.13
2023-11-24T08:40:47.389Z,99803.38
2023-11-24T08:43:50.518Z,99795.75
2023-11-24T08:46:53.217Z,99792.50
2023-11-24T08:49:56.815Z,99785.59
2023-11-24T08:52:59.777Z,99771.78
2023-11-24T08:56:01.644Z,99757.06
2023-11-24T08:59:06.614Z,99757.09
2023-11-24T09:02:09.325Z,99760.47
2023-11-24T09:05:11.621Z,99767.84
2023-11-24T09:08:13.349Z,99775.34
2023-11-24T09:11:15.320Z,99775.19
2023-11-24T09:14:18.403Z,99761.69
2023-11-24T09:17:21.565Z,99762.66
2023-11-24T09:20:23.318Z,99770.63
2023-11-24T09:23:25.029Z,99753.09
2023-11-24T09:26:26.716Z,99746.22
2023-11-24T09:29:29.967Z,99726.53
2023-11-24T09:32:34.635Z,99722.38
2023-11-24T09:35:36.335Z,99716.84
2023-11-24T09:38:38.030Z,99724.69
2023-11-24T09:41:43.489Z,99721.78
2023-11-24T09:44:48.682Z,99710.69
2023-11-24T09:47:52.698Z,99702.72
2023-11-24T09:50:55.369Z,99706.38
2023-11-24T09:53:57.308Z,99696.97
2023-11-24T09:56:59.114Z,99687.28
2023-11-24T10:00:02.301Z,99683.13
2023-11-24T10:03:08.493Z,99680.06
2023-11-24T10:06:10.348Z,99673.25
2023-11-24T10:09:13.378Z,99661.13
2023-11-24T10:12:16.997Z,99663.09
2023-11-24T10:15:21.533Z,99666.94
2023-11-24T10:18:26.756Z,99665.56
2023-11-24T10:21:33.088Z,99659.84
2023-11-24T10:24:38.520Z,99658.28
2023-11-24T10:27:43.396Z,99648.63
2023-11-24T10:30:47.237Z,99649.59
2023-11-24T10:35:54.214Z,99624.50
2023-11-24T10:39:01.887Z,99616.53
2023-11-24T10:42:09.572Z,99618.03
2023-11-24T10:45:12.651Z,99610.63
2023-11-24T10:48:37.595Z,99599.44
2023-11-24T10:53:07.924Z,99601.16
2023-11-24T10:56:10.512Z,99608.78
2023-11-24T11:03:26.296Z,99576.28
2023-11-24T11:08:45.184Z,99566.34
2023-11-24T11:12:32.008Z,99570.41
2023-11-24T11:15:33.997Z,99559.63
2023-11-24T11:18:37.068Z,99564.72
2023-11-24T11:21:40.916Z,99570.03
2023-11-24T11:24:44.931Z,99570.44
2023-11-24T11:27:48.159Z,99567.97
2023-11-24T11:30:51.257Z,99565.53
2023-11-24T11:33:54.891Z,99548.50
2023-11-24T11:37:08.990Z,99555.97
2023-11-24T11:40:20.772Z,99545.94
2023-11-24T11:43:23.062Z,99533.28
2023-11-24T11:46:25.234Z,99513.16
2023-11-24T11:49:27.256Z,99506.72
2023-11-24T11:52:29.531Z,99505.63
2023-11-24T11:55:34.031Z,99508.88
2023-11-24T11:58:36.197Z,99510.84
2023-11-24T12:01:38.340Z,99514.69
2023-11-24T12:04:40.252Z,99523.25
2023-11-24T12:07:44.459Z,99504.38
2023-11-24T12:10:47.958Z,99498.06
2023-11-24T12:13:51.988Z,99480.72
2023-11-24T12:16:54.811Z,99482.38
2023-11-24T12:19:57.279Z,99478.81
2023-11-24T12:23:01.175Z,99473.47
2023-11-24T12:26:04.619Z,99462.59
2023-11-24T12:29:11.753Z,99461.38
2023-11-24T12:32:13.748Z,99466.81
2023-11-24T12:37:14.363Z,99480.00
2023-11-24T12:40:17.296Z,99495.00
2023-11-24T12:43:21.156Z,99513.53
2023-11-24T12:46:23.006Z,99502.34
2023-11-24T12:49:24.842Z,99497.75
2023-11-24T12:54:12.296Z,99498.38
2023-11-24T12:57:14.056Z,99506.97
2023-11-24T13:00:17.672Z,99507.72
2023-11-24T13:03:19.813Z,99494.56
2023-11-24T13:06:21.622Z,99485.97
2023-11-24T13:09:29.243Z,99488.72
2023-11-24T13:12:32.107Z,99493.78
2023-11-24T13:15:34.056Z,99494.88
2023-11-24T13:18:39.073Z,99495.03
2023-11-24T13:21:40.832Z,99490.13
2023-11-24T13:24:44.132Z,99492.59
2023-11-24T13:27:46.171Z,99486.94
2023-11-24T13:30:51.563Z,99473.91
2023-11-24T13:33:53.310Z,99475.13
2023-11-24T13:36:59.039Z,99465.31
2023-11-24T13:40:02.772Z,99465.47
2023-11-24T13:43:04.636Z,99477.59
2023-11-24T13:46:08.025Z,99468.38
2023-11-24T13:49:13.755Z,99470.22
2023-11-24T13:52:17.592Z,99474.03
2023-11-24T13:55:20.730Z,99465.16
2023-11-24T13:58:23.850Z,99464.53
2023-11-24T14:01:28.417Z,99457.19
2023-11-24T14:04:34.765Z,99460.06
2023-11-24T14:07:36.740Z,99456.25
2023-11-24T14:10:39.842Z,99452.88
2023-11-24T14:13:41.707Z,99467.91
2023-11-24T14:16:45.031Z,99476.78
2023-11-24T14:19:46.870Z,99477.09
2023-11-24T14:23:07.330Z,99463.78
2023-11-24T14:26:10.402Z,99458.88
2023-11-24T14:29:51.947Z,99460.53
2023-11-24T14:32:53.844Z,99457.97
2023-11-24T14:35:56.137Z,99461.00
2023-11-24T14:38:58.424Z,99460.09
2023-11-24T14:42:00.679Z,99459.00
2023-11-24T14:45:05.730Z,99456.13
2023-11-24T14:48:09.895Z,99462.53
2023-11-24T14:51:14.832Z,99462.41
2023-11-24T14:54:17.343Z,99477.59
2023-11-24T14:57:19.296Z,99475.41
2023-11-24T15:00:31.586Z,99481.84
2023-11-24T15:03:39.763Z,99480.16
2023-11-24T15:06:41.629Z,99483.69
2023-11-24T15:09:46.351Z,99478.91
2023-11-24T15:12:49.086Z,99500.69
2023-11-24T15:15:53.537Z,99490.59
2023-11-24T15:18:55.719Z,99491.63
2023-11-24T15:22:04.029Z,99500.66
2023-11-24T15:25:07.763Z,99507.06
2023-11-24T15:28:13.551Z,99508.13
2023-11-24T15:31:16.900Z,99512.56
2023-11-24T15:34:19.061Z,99518.53
2023-11-24T15:37:21.199Z,99525.25
2023-11-24T15:40:22.877Z,99523.97
2023-11-24T15:43:25.153Z,99530.72
2023-11-24T15:46:34.283Z,99528.06
2023-11-24T15:49:37.131Z,99527.22
2023-11-24T15:52:40.112Z,99533.84
2023-11-24T15:55:45.665Z,99541.63
2023-11-24T15:58:52.410Z,99536.84
2023-11-24T16:01:58.516Z,99550.78
2023-11-24T16:05:02.429Z,99552.81
2023-11-24T16:08:08.806Z,99555.09
2023-11-24T16:11:11.628Z,99551.38
2023-11-24T16:14:14.104Z,99548.78
2023-11-24T16:17:17.244Z,99552.25
2023-11-24T16:20:19.095Z,99555.66
2023-11-24T16:23:21.582Z,99569.69
2023-11-24T16:26:24.626Z,99567.41
2023-11-24T16:29:26.424Z,99560.19
2023-11-24T16:32:29.637Z,99556.69
2023-11-24T16:35:31.364Z,99563.75
2023-11-24T16:38:36.037Z,99558.72
2023-11-24T16:41:38.230Z,99550.16
2023-11-24T16:44:40.039Z,99544.84
2023-11-24T16:47:43.849Z,99544.38
2023-11-24T16:50:47.056Z,99553.84
2023-11-24T16:53:48.858Z,99557.09
2023-11-24T16:56:50.748Z,99549.56
2023-11-24T16:59:52.622Z,99555.59
2023-11-24T17:02:56.025Z,99553.38
2023-11-24T17:05:58.120Z,99561.78
2023-11-24T17:08:59.881Z,99558.91
2023-11-24T17:12:01.648Z,99543.53
2023-11-24T17:15:03.904Z,99554.69
2023-11-24T17:18:11.608Z,99549.81
2023-11-24T17:21:13.505Z,99544.28
2023-11-24T17:24:15.339Z,99546.41
2023-11-24T17:27:17.009Z,99539.50
2023-11-24T17:30:19.354Z,99538.75
2023-11-24T17:33:22.432Z,99532.66
2023-11-24T17:36:25.009Z,99531.84
2023-11-24T17:39:28.240Z,99533.69
2023-11-24T17:42:29.955Z,99532.28
2023-11-24T17:45:31.757Z,99534.31
2023-11-24T17:48:35.742Z,99535.47
2023-11-24T17:51:38.636Z,99540.66
2023-11-24T17:54:40.268Z,99536.97
2023-11-24T17:57:42.589Z,99542.53
2023-11-24T18:00:44.604Z,99537.47
2023-11-24T18:03:49.258Z,99529.91
2023-11-24T18:06:52.694Z,99530.25
2023-11-24T18:09:54.491Z,99535.16
2023-11-24T18:12:57.740Z,99532.84
2023-11-24T18:15:59.700Z,99528.47
2023-11-24T18:19:03.053Z,99525.41
2023-11-24T18:22:05.094Z,99527.69
2023-11-24T18:25:08.833Z,99528.44
2023-11-24T18:28:12.554Z,99532.19
2023-11-24T18:31:14.804Z,99527.16
2023-11-24T18:34:17.952Z,99528.69
2023-11-24T18:37:19.934Z,99536.81
2023-11-24T18:40:23.051Z,99542.00
2023-11-24T18:43:33.734Z,99537.91
2023-11-24T18:46:41.328Z,99534.53
2023-11-24T18:49:44.727Z,99533.19
2023-11-24T18:52:46.570Z,99543.75
2023-11-24T18:55:48.239Z,99555.53
2023-11-24T18:58:50.120Z,99567.84
2023-11-24T19:01:52.102Z,99586.38
2023-11-24T19:04:55.706Z,99574.84
2023-11-24T19:11:27.084Z,99587.25
2023-11-24T19:14:29.592Z,99595.81
2023-11-24T19:17:31.624Z,99591.50
2023-11-24T19:20:33.547Z,99580.47
2023-11-24T19:23:35.420Z,99589.03
2023-11-24T19:28:36.167Z,99577.38
2023-11-24T19:31:38.393Z,99573.09
2023-11-24T19:34:41.385Z,99570.19
2023-11-24T19:37:43.431Z,99563.81
2023-11-24T19:40:48.425Z,99565.59
2023-11-24T19:43:52.044Z,99563.78
2023-11-24T19:46:54.919Z,99565.59
2023-11-24T19:49:56.948Z,99555.28
2023-11-24T19:52:59.548Z,99557.25
2023-11-24T19:56:01.659Z,99552.88
2023-11-24T19:59:04.927Z,99544.94
2023-11-24T20:02:07.237Z,99548.22
2023-11-24T20:05:09.527Z,99538.88
2023-11-24T20:08:11.436Z,99544.06
2023-11-24T20:11:13.689Z,99555.22
2023-11-24T20:14:18.477Z,99543.31
2023-11-24T20:17:20.385Z,99531.53
2023-11-24T20:20:22.805Z,99528.34
2023-11-24T20:23:24.611Z,99519.09
2023-11-24T20:26:27.340Z,99520.53
2023-11-24T20:29:30.476Z,99530.09
2023-11-24T20:32:33.218Z,99535.28
2023-11-24T20:35:35.124Z,99527.66
2023-11-24T20:38:37.032Z,99527.09
2023-11-24T20:41:40.033Z,99531.22
2023-11-24T20:44:43.595Z,99529.13
2023-11-24T20:47:45.464Z,99522.16
2023-11-24T20:50:47.372Z,99534.28
2023-11-24T20:53:49.238Z,99530.34
2023-11-24T20:56:51.072Z,99526.03
2023-11-24T20:59:54.159Z,99520.66
2023-11-24T21:02:55.961Z,99515.56
2023-11-24T21:05:57.648Z,99511.88
2023-11-24T21:09:00.644Z,99511.50
2023-11-24T21:12:02.612Z,99516.78
2023-11-24T21:15:07.339Z,99511.31
2023-11-24T21:18:09.380Z,99495.50
2023-11-24T21:21:13.276Z,99496.75
2023-11-24T21:24:15.984Z,99488.06
2023-11-24T21:27:18.991Z,99487.13
2023-11-24T21:30:25.644Z,99477.06
2023-11-24T21:33:27.495Z,99483.28
2023-11-24T21:36:29.402Z,99475.66
2023-11-24T21:39:31.377Z,99471.97
2023-11-24T21:42:33.448Z,99462.41
2023-11-24T21:45:36.825Z,99453.50
2023-11-24T21:48:38.721Z,99441.78
2023-11-24T21:51:43.182Z,99446.47
2023-11-24T21:54:46.172Z,99447.41
2023-11-24T21:57:50.340Z,99450.50
2023-11-24T22:00:53.536Z,99445.63
2023-11-24T22:03:56.779Z,99461.13
2023-11-24T22:06:58.908Z,99463.16
2023-11-24T22:10:02.211Z,99467.75
2023-11-24T22:13:05.806Z,99461.63
2023-11-24T22:16:10.373Z,99483.25
2023-11-24T22:19:12.364Z,99475.59
2023-11-24T22:22:14.093Z,99497.41
2023-11-24T22:25:16.131Z,99493.31
2023-11-24T22:28:17.882Z,99513.25
2023-11-24T22:31:21.421Z,99515.34
2023-11-24T22:34:23.374Z,99514.19
2023-11-24T22:37:25.744Z,99514.59
2023-11-24T22:40:27.903Z,99515.75
2023-11-24T22:43:29.651Z,99513.25
2023-11-24T22:46:33.814Z,99524.94
2023-11-24T22:49:35.976Z,99528.69
2023-11-24T22:52:37.973Z,99528.38
2023-11-24T22:55:40.938Z,99521.88
2023-11-24T22:58:42.898Z,99513.22
2023-11-24T23:01:46.351Z,99530.63
2023-11-24T23:04:48.223Z,99531.38
2023-11-24T23:07:50.023Z,99527.47
2023-11-24T23:10:51.678Z,99533.97
2023-11-24T23:13:53.597Z,99530.47
2023-11-24T23:16:56.877Z,99533.22
2023-11-24T23:19:58.628Z,99530.06
2023-11-24T23:23:00.455Z,99536.72
2023-11-24T23:26:02.548Z,99541.00
2023-11-24T23:29:04.878Z,99540.84
2023-11-24T23:32:08.487Z,99543.44
2023-11-24T23:35:13.335Z,99558.22
2023-11-24T23:38:16.060Z,99561.78
2023-11-24T23:41:18.126Z,99567.69
2023-11-24T23:44:20.019Z,99583.44
2023-11-24T23:47:23.507Z,99582.53
2023-11-24T23:50:30.835Z,99597.50
2023-11-24T23:53:33.176Z,99605.47
2023-11-24T23:56:34.926Z,99606.53
2023-11-24T23:59:36.782Z,99606.53
